sensor_id;sensor_type;location;lat;lon;timestamp;P1;durP1;ratioP1;P2;durP2;ratioP2
49237;SDS011;35069;47.906;1.892;2023-11-21T00:02:12;9.07;;;2.75;;
49237;SDS011;35069;47.906;1.892;2023-11-21T00:04:37;5.47;;;2.17;;
49237;SDS011;35069;47.906;1.892;2023-11-21T00:07:03;5.47;;;2.30;;
49237;SDS011;35069;47.906;1.892;2023-11-21T00:09:29;3.67;;;1.70;;
49237;SDS011;35069;47.906;1.892;2023-11-21T00:11:54;7.30;;;2.22;;
49237;SDS011;35069;47.906;1.892;2023-11-21T00:14:20;5.03;;;1.80;;
49237;SDS011;35069;47.906;1.892;2023-11-21T00:16:45;5.68;;;2.08;;
49237;SDS011;35069;47.906;1.892;2023-11-21T00:19:11;5.68;;;2.05;;
49237;SDS011;35069;47.906;1.892;2023-11-21T00:21:37;3.15;;;1.60;;
49237;SDS011;35069;47.906;1.892;2023-11-21T00:24:03;3.33;;;1.63;;
49237;SDS011;35069;47.906;1.892;2023-11-21T00:26:28;2.83;;;1.63;;
49237;SDS011;35069;47.906;1.892;2023-11-21T00:28:56;3.05;;;1.60;;
49237;SDS011;35069;47.906;1.892;2023-11-21T00:31:21;3.53;;;1.90;;
49237;SDS011;35069;47.906;1.892;2023-11-21T00:33:47;7.70;;;2.20;;
49237;SDS011;35069;47.906;1.892;2023-11-21T00:36:13;2.80;;;1.50;;
49237;SDS011;35069;47.906;1.892;2023-11-21T00:38:38;3.22;;;1.90;;
49237;SDS011;35069;47.906;1.892;2023-11-21T00:41:05;8.55;;;1.20;;
49237;SDS011;35069;47.906;1.892;2023-11-21T00:43:31;5.60;;;2.28;;
49237;SDS011;35069;47.906;1.892;2023-11-21T00:45:58;2.92;;;1.50;;
49237;SDS011;35069;47.906;1.892;2023-11-21T00:48:23;3.15;;;2.00;;
49237;SDS011;35069;47.906;1.892;2023-11-21T00:50:49;6.28;;;1.65;;
49237;SDS011;35069;47.906;1.892;2023-11-21T00:53:15;3.50;;;1.95;;
49237;SDS011;35069;47.906;1.892;2023-11-21T00:55:40;4.97;;;2.38;;
49237;SDS011;35069;47.906;1.892;2023-11-21T00:58:06;6.35;;;1.95;;
49237;SDS011;35069;47.906;1.892;2023-11-21T01:00:32;4.65;;;2.10;;
49237;SDS011;35069;47.906;1.892;2023-11-21T01:02:59;10.20;;;4.70;;
49237;SDS011;35069;47.906;1.892;2023-11-21T01:05:24;5.78;;;2.10;;
49237;SDS011;35069;47.906;1.892;2023-11-21T01:07:50;8.13;;;2.28;;
49237;SDS011;35069;47.906;1.892;2023-11-21T01:10:16;5.15;;;2.15;;
49237;SDS011;35069;47.906;1.892;2023-11-21T01:12:42;3.42;;;1.50;;
49237;SDS011;35069;47.906;1.892;2023-11-21T01:15:08;3.70;;;1.63;;
49237;SDS011;35069;47.906;1.892;2023-11-21T01:17:33;6.93;;;2.70;;
49237;SDS011;35069;47.906;1.892;2023-11-21T01:20:00;2.22;;;1.50;;
49237;SDS011;35069;47.906;1.892;2023-11-21T01:22:26;6.53;;;2.00;;
49237;SDS011;35069;47.906;1.892;2023-11-21T01:24:53;5.50;;;2.28;;
49237;SDS011;35069;47.906;1.892;2023-11-21T01:27:18;4.28;;;2.10;;
49237;SDS011;35069;47.906;1.892;2023-11-21T01:29:44;3.47;;;1.80;;
49237;SDS011;35069;47.906;1.892;2023-11-21T01:32:10;8.38;;;1.95;;
49237;SDS011;35069;47.906;1.892;2023-11-21T01:34:36;4.18;;;1.80;;
49237;SDS011;35069;47.906;1.892;2023-11-21T01:37:02;4.55;;;1.90;;
49237;SDS011;35069;47.906;1.892;2023-11-21T01:39:29;7.78;;;2.38;;
49237;SDS011;35069;47.906;1.892;2023-11-21T01:41:55;6.50;;;1.92;;
49237;SDS011;35069;47.906;1.892;2023-11-21T01:44:23;5.93;;;2.10;;
49237;SDS011;35069;47.906;1.892;2023-11-21T01:46:49;8.35;;;1.92;;
49237;SDS011;35069;47.906;1.892;2023-11-21T01:49:16;3.80;;;1.60;;
49237;SDS011;35069;47.906;1.892;2023-11-21T01:51:43;4.85;;;1.70;;
49237;SDS011;35069;47.906;1.892;2023-11-21T01:54:13;3.97;;;1.77;;
49237;SDS011;35069;47.906;1.892;2023-11-21T01:56:39;4.47;;;1.63;;
49237;SDS011;35069;47.906;1.892;2023-11-21T01:59:05;6.80;;;1.75;;
49237;SDS011;35069;47.906;1.892;2023-11-21T02:01:32;6.22;;;2.83;;
49237;SDS011;35069;47.906;1.892;2023-11-21T02:03:58;4.90;;;1.80;;
49237;SDS011;35069;47.906;1.892;2023-11-21T02:06:24;7.30;;;2.78;;
49237;SDS011;35069;47.906;1.892;2023-11-21T02:08:50;3.13;;;1.73;;
49237;SDS011;35069;47.906;1.892;2023-11-21T02:11:16;4.38;;;1.58;;
49237;SDS011;35069;47.906;1.892;2023-11-21T02:13:42;2.88;;;1.88;;
49237;SDS011;35069;47.906;1.892;2023-11-21T02:16:09;6.00;;;1.75;;
49237;SDS011;35069;47.906;1.892;2023-11-21T02:18:37;2.45;;;1.58;;
49237;SDS011;35069;47.906;1.892;2023-11-21T02:21:04;5.78;;;1.88;;
49237;SDS011;35069;47.906;1.892;2023-11-21T02:23:30;6.63;;;2.45;;
49237;SDS011;35069;47.906;1.892;2023-11-21T02:25:55;3.00;;;1.63;;
49237;SDS011;35069;47.906;1.892;2023-11-21T02:28:21;6.32;;;1.85;;
49237;SDS011;35069;47.906;1.892;2023-11-21T02:30:50;4.38;;;2.15;;
49237;SDS011;35069;47.906;1.892;2023-11-21T02:33:20;3.70;;;1.83;;
49237;SDS011;35069;47.906;1.892;2023-11-21T02:35:46;4.97;;;2.30;;
49237;SDS011;35069;47.906;1.892;2023-11-21T02:38:12;6.15;;;1.70;;
49237;SDS011;35069;47.906;1.892;2023-11-21T02:40:38;7.60;;;2.30;;
49237;SDS011;35069;47.906;1.892;2023-11-21T02:43:04;3.05;;;1.58;;
49237;SDS011;35069;47.906;1.892;2023-11-21T02:45:30;6.25;;;2.10;;
49237;SDS011;35069;47.906;1.892;2023-11-21T02:47:56;3.13;;;1.85;;
49237;SDS011;35069;47.906;1.892;2023-11-21T02:50:22;9.13;;;2.10;;
49237;SDS011;35069;47.906;1.892;2023-11-21T02:52:48;6.70;;;2.17;;
49237;SDS011;35069;47.906;1.892;2023-11-21T02:55:14;4.05;;;1.85;;
49237;SDS011;35069;47.906;1.892;2023-11-21T02:57:39;9.80;;;2.13;;
49237;SDS011;35069;47.906;1.892;2023-11-21T03:00:05;7.00;;;2.28;;
49237;SDS011;35069;47.906;1.892;2023-11-21T03:02:39;7.25;;;2.58;;
49237;SDS011;35069;47.906;1.892;2023-11-21T03:05:06;3.70;;;1.77;;
49237;SDS011;35069;47.906;1.892;2023-11-21T03:07:33;12.00;;;2.13;;
49237;SDS011;35069;47.906;1.892;2023-11-21T03:10:00;3.92;;;1.80;;
49237;SDS011;35069;47.906;1.892;2023-11-21T03:12:25;6.32;;;1.98;;
49237;SDS011;35069;47.906;1.892;2023-11-21T03:14:51;2.47;;;2.15;;
49237;SDS011;35069;47.906;1.892;2023-11-21T03:17:16;4.72;;;2.50;;
49237;SDS011;35069;47.906;1.892;2023-11-21T03:19:42;3.03;;;1.88;;
49237;SDS011;35069;47.906;1.892;2023-11-21T03:22:07;4.47;;;1.92;;
49237;SDS011;35069;47.906;1.892;2023-11-21T03:24:33;5.18;;;1.90;;
49237;SDS011;35069;47.906;1.892;2023-11-21T03:26:59;8.20;;;2.13;;
49237;SDS011;35069;47.906;1.892;2023-11-21T03:29:25;6.57;;;1.90;;
49237;SDS011;35069;47.906;1.892;2023-11-21T03:31:51;3.28;;;1.90;;
49237;SDS011;35069;47.906;1.892;2023-11-21T03:34:23;3.90;;;2.67;;
49237;SDS011;35069;47.906;1.892;2023-11-21T03:36:52;5.05;;;1.77;;
49237;SDS011;35069;47.906;1.892;2023-11-21T03:39:21;5.60;;;2.20;;
49237;SDS011;35069;47.906;1.892;2023-11-21T03:41:47;5.60;;;1.67;;
49237;SDS011;35069;47.906;1.892;2023-11-21T03:44:13;2.47;;;1.88;;
49237;SDS011;35069;47.906;1.892;2023-11-21T03:46:39;7.07;;;1.98;;
49237;SDS011;35069;47.906;1.892;2023-11-21T03:49:05;3.25;;;1.80;;
49237;SDS011;35069;47.906;1.892;2023-11-21T03:51:30;5.40;;;1.80;;
49237;SDS011;35069;47.906;1.892;2023-11-21T03:53:56;2.65;;;1.90;;
49237;SDS011;35069;47.906;1.892;2023-11-21T03:56:22;2.92;;;1.70;;
49237;SDS011;35069;47.906;1.892;2023-11-21T03:58:48;3.20;;;1.80;;
49237;SDS011;35069;47.906;1.892;2023-11-21T04:01:23;4.78;;;2.20;;
49237;SDS011;35069;47.906;1.892;2023-11-21T04:03:49;5.57;;;2.20;;
49237;SDS011;35069;47.906;1.892;2023-11-21T04:06:16;2.13;;;1.35;;
49237;SDS011;35069;47.906;1.892;2023-11-21T04:08:42;3.72;;;1.85;;
49237;SDS011;35069;47.906;1.892;2023-11-21T04:11:09;10.57;;;1.90;;
49237;SDS011;35069;47.906;1.892;2023-11-21T04:13:36;5.05;;;2.00;;
49237;SDS011;35069;47.906;1.892;2023-11-21T04:16:03;4.15;;;1.55;;
49237;SDS011;35069;47.906;1.892;2023-11-21T04:18:30;3.88;;;2.15;;
49237;SDS011;35069;47.906;1.892;2023-11-21T04:20:55;5.32;;;2.63;;
49237;SDS011;35069;47.906;1.892;2023-11-21T04:23:21;5.75;;;2.65;;
49237;SDS011;35069;47.906;1.892;2023-11-21T04:25:46;4.45;;;2.28;;
49237;SDS011;35069;47.906;1.892;2023-11-21T04:28:12;7.05;;;1.98;;
49237;SDS011;35069;47.906;1.892;2023-11-21T04:30:38;3.17;;;1.88;;
49237;SDS011;35069;47.906;1.892;2023-11-21T04:33:04;4.25;;;2.13;;
49237;SDS011;35069;47.906;1.892;2023-11-21T04:35:30;4.10;;;1.60;;
49237;SDS011;35069;47.906;1.892;2023-11-21T04:37:55;5.93;;;1.70;;
49237;SDS011;35069;47.906;1.892;2023-11-21T04:40:22;7.47;;;3.45;;
49237;SDS011;35069;47.906;1.892;2023-11-21T04:42:48;4.97;;;1.55;;
49237;SDS011;35069;47.906;1.892;2023-11-21T04:45:13;4.53;;;2.47;;
49237;SDS011;35069;47.906;1.892;2023-11-21T04:47:39;10.55;;;2.20;;
49237;SDS011;35069;47.906;1.892;2023-11-21T04:50:05;7.60;;;2.00;;
49237;SDS011;35069;47.906;1.892;2023-11-21T04:52:31;4.53;;;2.22;;
49237;SDS011;35069;47.906;1.892;2023-11-21T04:54:58;6.30;;;2.28;;
49237;SDS011;35069;47.906;1.892;2023-11-21T04:57:25;3.75;;;2.17;;
49237;SDS011;35069;47.906;1.892;2023-11-21T04:59:53;9.32;;;2.53;;
49237;SDS011;35069;47.906;1.892;2023-11-21T05:02:19;3.45;;;2.13;;
49237;SDS011;35069;47.906;1.892;2023-11-21T05:04:46;8.82;;;2.58;;
49237;SDS011;35069;47.906;1.892;2023-11-21T05:07:11;2.20;;;2.00;;
49237;SDS011;35069;47.906;1.892;2023-11-21T05:09:40;7.38;;;2.75;;
49237;SDS011;35069;47.906;1.892;2023-11-21T05:12:08;10.23;;;2.83;;
49237;SDS011;35069;47.906;1.892;2023-11-21T05:14:34;6.13;;;2.30;;
49237;SDS011;35069;47.906;1.892;2023-11-21T05:17:00;8.85;;;2.53;;
49237;SDS011;35069;47.906;1.892;2023-11-21T05:19:26;2.22;;;2.03;;
49237;SDS011;35069;47.906;1.892;2023-11-21T05:21:52;9.15;;;2.80;;
49237;SDS011;35069;47.906;1.892;2023-11-21T05:24:17;6.40;;;2.75;;
49237;SDS011;35069;47.906;1.892;2023-11-21T05:26:43;3.55;;;2.50;;
49237;SDS011;35069;47.906;1.892;2023-11-21T05:29:08;5.28;;;3.47;;
49237;SDS011;35069;47.906;1.892;2023-11-21T05:31:35;9.95;;;2.88;;
49237;SDS011;35069;47.906;1.892;2023-11-21T05:34:01;6.85;;;2.60;;
49237;SDS011;35069;47.906;1.892;2023-11-21T05:36:28;7.68;;;3.28;;
49237;SDS011;35069;47.906;1.892;2023-11-21T05:38:53;3.75;;;2.33;;
49237;SDS011;35069;47.906;1.892;2023-11-21T05:41:19;7.13;;;2.75;;
49237;SDS011;35069;47.906;1.892;2023-11-21T05:43:45;4.68;;;2.30;;
49237;SDS011;35069;47.906;1.892;2023-11-21T05:46:10;4.90;;;2.42;;
49237;SDS011;35069;47.906;1.892;2023-11-21T05:48:36;4.18;;;2.50;;
49237;SDS011;35069;47.906;1.892;2023-11-21T05:51:06;5.55;;;2.67;;
49237;SDS011;35069;47.906;1.892;2023-11-21T05:53:33;6.72;;;2.50;;
49237;SDS011;35069;47.906;1.892;2023-11-21T05:55:59;3.78;;;2.53;;
49237;SDS011;35069;47.906;1.892;2023-11-21T05:58:25;5.00;;;2.20;;
49237;SDS011;35069;47.906;1.892;2023-11-21T06:00:50;8.82;;;3.00;;
49237;SDS011;35069;47.906;1.892;2023-11-21T06:03:16;8.02;;;3.53;;
49237;SDS011;35069;47.906;1.892;2023-11-21T06:05:42;8.35;;;3.03;;
49237;SDS011;35069;47.906;1.892;2023-11-21T06:08:08;5.15;;;3.15;;
49237;SDS011;35069;47.906;1.892;2023-11-21T06:10:34;4.72;;;2.92;;
49237;SDS011;35069;47.906;1.892;2023-11-21T06:12:59;11.65;;;5.72;;
49237;SDS011;35069;47.906;1.892;2023-11-21T06:15:25;5.93;;;3.03;;
49237;SDS011;35069;47.906;1.892;2023-11-21T06:17:50;8.68;;;3.70;;
49237;SDS011;35069;47.906;1.892;2023-11-21T06:20:19;4.65;;;2.95;;
49237;SDS011;35069;47.906;1.892;2023-11-21T06:22:48;12.23;;;3.85;;
49237;SDS011;35069;47.906;1.892;2023-11-21T06:25:15;7.47;;;4.00;;
49237;SDS011;35069;47.906;1.892;2023-11-21T06:27:42;7.78;;;3.42;;
49237;SDS011;35069;47.906;1.892;2023-11-21T06:30:12;5.80;;;3.78;;
49237;SDS011;35069;47.906;1.892;2023-11-21T06:32:39;6.97;;;3.40;;
49237;SDS011;35069;47.906;1.892;2023-11-21T06:35:05;9.13;;;4.95;;
49237;SDS011;35069;47.906;1.892;2023-11-21T06:37:32;5.93;;;3.92;;
49237;SDS011;35069;47.906;1.892;2023-11-21T06:39:58;5.63;;;3.45;;
49237;SDS011;35069;47.906;1.892;2023-11-21T06:42:27;6.53;;;4.35;;
49237;SDS011;35069;47.906;1.892;2023-11-21T06:44:54;5.18;;;4.40;;
49237;SDS011;35069;47.906;1.892;2023-11-21T06:47:22;8.52;;;4.60;;
49237;SDS011;35069;47.906;1.892;2023-11-21T06:49:51;5.50;;;3.53;;
49237;SDS011;35069;47.906;1.892;2023-11-21T06:52:18;4.60;;;3.95;;
49237;SDS011;35069;47.906;1.892;2023-11-21T06:54:44;4.32;;;3.53;;
49237;SDS011;35069;47.906;1.892;2023-11-21T06:57:10;5.00;;;3.55;;
49237;SDS011;35069;47.906;1.892;2023-11-21T06:59:36;6.65;;;3.97;;
49237;SDS011;35069;47.906;1.892;2023-11-21T07:02:02;7.03;;;3.47;;
49237;SDS011;35069;47.906;1.892;2023-11-21T07:04:29;7.28;;;3.88;;
49237;SDS011;35069;47.906;1.892;2023-11-21T07:06:55;5.47;;;4.82;;
49237;SDS011;35069;47.906;1.892;2023-11-21T07:09:21;9.00;;;4.50;;
49237;SDS011;35069;47.906;1.892;2023-11-21T07:11:47;5.40;;;4.82;;
49237;SDS011;35069;47.906;1.892;2023-11-21T07:14:14;7.68;;;4.75;;
49237;SDS011;35069;47.906;1.892;2023-11-21T07:16:40;7.05;;;4.28;;
49237;SDS011;35069;47.906;1.892;2023-11-21T07:19:06;7.25;;;4.72;;
49237;SDS011;35069;47.906;1.892;2023-11-21T07:21:35;6.70;;;4.32;;
49237;SDS011;35069;47.906;1.892;2023-11-21T07:24:01;7.25;;;5.32;;
49237;SDS011;35069;47.906;1.892;2023-11-21T07:26:27;7.13;;;5.18;;
49237;SDS011;35069;47.906;1.892;2023-11-21T07:28:53;7.40;;;6.10;;
49237;SDS011;35069;47.906;1.892;2023-11-21T07:31:19;6.97;;;5.25;;
49237;SDS011;35069;47.906;1.892;2023-11-21T07:33:45;8.93;;;5.15;;
49237;SDS011;35069;47.906;1.892;2023-11-21T07:36:12;7.28;;;5.32;;
49237;SDS011;35069;47.906;1.892;2023-11-21T07:38:38;8.27;;;5.70;;
49237;SDS011;35069;47.906;1.892;2023-11-21T07:41:04;11.13;;;5.50;;
49237;SDS011;35069;47.906;1.892;2023-11-21T07:43:32;14.55;;;6.57;;
49237;SDS011;35069;47.906;1.892;2023-11-21T07:46:03;8.10;;;6.05;;
49237;SDS011;35069;47.906;1.892;2023-11-21T07:48:29;7.25;;;6.53;;
49237;SDS011;35069;47.906;1.892;2023-11-21T07:50:56;6.35;;;4.95;;
49237;SDS011;35069;47.906;1.892;2023-11-21T07:53:23;6.93;;;5.05;;
49237;SDS011;35069;47.906;1.892;2023-11-21T07:55:54;9.23;;;5.63;;
49237;SDS011;35069;47.906;1.892;2023-11-21T07:58:20;10.93;;;6.57;;
49237;SDS011;35069;47.906;1.892;2023-11-21T08:00:45;8.77;;;5.40;;
49237;SDS011;35069;47.906;1.892;2023-11-21T08:03:13;6.60;;;5.00;;
49237;SDS011;35069;47.906;1.892;2023-11-21T08:05:38;8.45;;;4.55;;
49237;SDS011;35069;47.906;1.892;2023-11-21T08:08:04;8.02;;;4.80;;
49237;SDS011;35069;47.906;1.892;2023-11-21T08:10:30;10.50;;;5.65;;
49237;SDS011;35069;47.906;1.892;2023-11-21T08:12:55;5.68;;;5.18;;
49237;SDS011;35069;47.906;1.892;2023-11-21T08:15:21;5.82;;;4.97;;
49237;SDS011;35069;47.906;1.892;2023-11-21T08:17:47;5.78;;;4.55;;
49237;SDS011;35069;47.906;1.892;2023-11-21T08:20:13;6.32;;;4.63;;
49237;SDS011;35069;47.906;1.892;2023-11-21T08:22:44;6.03;;;5.45;;
49237;SDS011;35069;47.906;1.892;2023-11-21T08:25:12;7.57;;;4.55;;
49237;SDS011;35069;47.906;1.892;2023-11-21T08:27:38;6.35;;;4.47;;
49237;SDS011;35069;47.906;1.892;2023-11-21T08:30:04;8.27;;;4.82;;
49237;SDS011;35069;47.906;1.892;2023-11-21T08:32:30;5.63;;;4.75;;
49237;SDS011;35069;47.906;1.892;2023-11-21T08:34:57;8.38;;;4.85;;
49237;SDS011;35069;47.906;1.892;2023-11-21T08:37:23;11.10;;;5.53;;
49237;SDS011;35069;47.906;1.892;2023-11-21T08:39:49;12.40;;;5.75;;
49237;SDS011;35069;47.906;1.892;2023-11-21T08:42:14;9.57;;;5.63;;
49237;SDS011;35069;47.906;1.892;2023-11-21T08:44:40;5.95;;;5.35;;
49237;SDS011;35069;47.906;1.892;2023-11-21T08:47:06;10.20;;;4.85;;
49237;SDS011;35069;47.906;1.892;2023-11-21T08:49:32;10.45;;;5.10;;
49237;SDS011;35069;47.906;1.892;2023-11-21T08:51:58;10.63;;;5.68;;
49237;SDS011;35069;47.906;1.892;2023-11-21T08:54:24;7.90;;;4.88;;
49237;SDS011;35069;47.906;1.892;2023-11-21T08:56:51;6.90;;;4.40;;
49237;SDS011;35069;47.906;1.892;2023-11-21T08:59:17;6.75;;;4.32;;
49237;SDS011;35069;47.906;1.892;2023-11-21T09:01:45;8.13;;;4.18;;
49237;SDS011;35069;47.906;1.892;2023-11-21T09:04:10;9.38;;;4.70;;
49237;SDS011;35069;47.906;1.892;2023-11-21T09:06:37;12.88;;;5.53;;
49237;SDS011;35069;47.906;1.892;2023-11-21T09:09:03;9.25;;;4.72;;
49237;SDS011;35069;47.906;1.892;2023-11-21T09:11:30;9.13;;;5.10;;
49237;SDS011;35069;47.906;1.892;2023-11-21T09:13:58;9.10;;;5.60;;
49237;SDS011;35069;47.906;1.892;2023-11-21T09:16:24;12.40;;;5.88;;
49237;SDS011;35069;47.906;1.892;2023-11-21T09:18:50;12.43;;;6.50;;
49237;SDS011;35069;47.906;1.892;2023-11-21T09:21:16;10.48;;;7.03;;
49237;SDS011;35069;47.906;1.892;2023-11-21T09:23:42;5.32;;;4.35;;
49237;SDS011;35069;47.906;1.892;2023-11-21T09:26:11;5.53;;;4.35;;
49237;SDS011;35069;47.906;1.892;2023-11-21T09:28:37;7.50;;;4.35;;
49237;SDS011;35069;47.906;1.892;2023-11-21T09:31:03;5.07;;;4.57;;
49237;SDS011;35069;47.906;1.892;2023-11-21T09:33:29;13.73;;;4.90;;
49237;SDS011;35069;47.906;1.892;2023-11-21T09:35:56;7.15;;;5.07;;
49237;SDS011;35069;47.906;1.892;2023-11-21T09:38:22;7.43;;;5.47;;
49237;SDS011;35069;47.906;1.892;2023-11-21T09:40:48;9.00;;;4.93;;
49237;SDS011;35069;47.906;1.892;2023-11-21T09:43:17;5.93;;;4.90;;
49237;SDS011;35069;47.906;1.892;2023-11-21T09:45:47;12.63;;;5.80;;
49237;SDS011;35069;47.906;1.892;2023-11-21T09:48:18;10.70;;;5.72;;
49237;SDS011;35069;47.906;1.892;2023-11-21T09:50:45;13.57;;;6.15;;
49237;SDS011;35069;47.906;1.892;2023-11-21T09:53:13;6.70;;;5.45;;
49237;SDS011;35069;47.906;1.892;2023-11-21T09:55:52;9.32;;;6.05;;
49237;SDS011;35069;47.906;1.892;2023-11-21T09:58:18;9.40;;;6.90;;
49237;SDS011;35069;47.906;1.892;2023-11-21T10:00:45;10.10;;;6.13;;
49237;SDS011;35069;47.906;1.892;2023-11-21T10:03:12;9.35;;;6.65;;
49237;SDS011;35069;47.906;1.892;2023-11-21T10:05:39;12.65;;;7.22;;
49237;SDS011;35069;47.906;1.892;2023-11-21T10:08:08;7.88;;;6.60;;
49237;SDS011;35069;47.906;1.892;2023-11-21T10:10:37;11.35;;;6.50;;
49237;SDS011;35069;47.906;1.892;2023-11-21T10:13:10;10.02;;;6.70;;
49237;SDS011;35069;47.906;1.892;2023-11-21T10:15:37;6.95;;;6.22;;
49237;SDS011;35069;47.906;1.892;2023-11-21T10:18:03;7.03;;;6.20;;
49237;SDS011;35069;47.906;1.892;2023-11-21T10:20:31;8.70;;;6.25;;
49237;SDS011;35069;47.906;1.892;2023-11-21T10:22:58;9.10;;;6.88;;
49237;SDS011;35069;47.906;1.892;2023-11-21T10:25:26;7.30;;;6.63;;
49237;SDS011;35069;47.906;1.892;2023-11-21T10:27:57;8.15;;;7.15;;
49237;SDS011;35069;47.906;1.892;2023-11-21T10:30:35;4.78;;;4.35;;
49237;SDS011;35069;47.906;1.892;2023-11-21T10:33:03;6.22;;;4.50;;
49237;SDS011;35069;47.906;1.892;2023-11-21T10:38:19;5.65;;;5.22;;
49237;SDS011;35069;47.906;1.892;2023-11-21T10:40:49;6.40;;;5.43;;
49237;SDS011;35069;47.906;1.892;2023-11-21T10:43:16;5.03;;;4.45;;
49237;SDS011;35069;47.906;1.892;2023-11-21T10:45:42;5.88;;;5.03;;
49237;SDS011;35069;47.906;1.892;2023-11-21T10:48:14;4.68;;;4.22;;
49237;SDS011;35069;47.906;1.892;2023-11-21T10:53:06;6.70;;;4.38;;
49237;SDS011;35069;47.906;1.892;2023-11-21T10:55:32;5.93;;;3.92;;
49237;SDS011;35069;47.906;1.892;2023-11-21T10:58:00;4.55;;;4.15;;
49237;SDS011;35069;47.906;1.892;2023-11-21T11:00:27;6.47;;;4.88;;
49237;SDS011;35069;47.906;1.892;2023-11-21T11:02:54;5.50;;;4.53;;
49237;SDS011;35069;47.906;1.892;2023-11-21T11:05:21;4.63;;;4.13;;
49237;SDS011;35069;47.906;1.892;2023-11-21T11:07:50;6.85;;;4.57;;
49237;SDS011;35069;47.906;1.892;2023-11-21T11:10:20;7.43;;;4.13;;
49237;SDS011;35069;47.906;1.892;2023-11-21T11:12:48;6.22;;;5.13;;
49237;SDS011;35069;47.906;1.892;2023-11-21T11:15:15;5.50;;;3.85;;
49237;SDS011;35069;47.906;1.892;2023-11-21T11:17:41;3.20;;;3.00;;
49237;SDS011;35069;47.906;1.892;2023-11-21T11:20:09;4.00;;;2.72;;
49237;SDS011;35069;47.906;1.892;2023-11-21T11:22:41;3.53;;;2.83;;
49237;SDS011;35069;47.906;1.892;2023-11-21T11:25:45;3.17;;;2.80;;
49237;SDS011;35069;47.906;1.892;2023-11-21T11:28:19;2.38;;;2.15;;
49237;SDS011;35069;47.906;1.892;2023-11-21T11:33:45;2.15;;;2.05;;
49237;SDS011;35069;47.906;1.892;2023-11-21T11:36:21;1.77;;;1.55;;
49237;SDS011;35069;47.906;1.892;2023-11-21T11:38:51;2.40;;;1.67;;
49237;SDS011;35069;47.906;1.892;2023-11-21T11:41:30;1.95;;;1.73;;
49237;SDS011;35069;47.906;1.892;2023-11-21T11:44:02;1.63;;;1.53;;
49237;SDS011;35069;47.906;1.892;2023-11-21T11:49:28;1.00;;;1.00;;
49237;SDS011;35069;47.906;1.892;2023-11-21T11:54:56;1.85;;;1.23;;
49237;SDS011;35069;47.906;1.892;2023-11-21T11:57:26;1.90;;;1.70;;
49237;SDS011;35069;47.906;1.892;2023-11-21T12:00:10;1.77;;;1.47;;
49237;SDS011;35069;47.906;1.892;2023-11-21T12:02:37;1.48;;;1.25;;
49237;SDS011;35069;47.906;1.892;2023-11-21T12:05:10;1.10;;;1.10;;
49237;SDS011;35069;47.906;1.892;2023-11-21T12:07:47;3.28;;;1.20;;
49237;SDS011;35069;47.906;1.892;2023-11-21T12:10:20;2.33;;;1.08;;
49237;SDS011;35069;47.906;1.892;2023-11-21T12:12:50;1.23;;;1.23;;
49237;SDS011;35069;47.906;1.892;2023-11-21T12:15:17;0.60;;;0.60;;
49237;SDS011;35069;47.906;1.892;2023-11-21T12:17:44;3.10;;;0.82;;
49237;SDS011;35069;47.906;1.892;2023-11-21T12:20:10;1.63;;;0.98;;
49237;SDS011;35069;47.906;1.892;2023-11-21T12:22:43;0.60;;;0.60;;
49237;SDS011;35069;47.906;1.892;2023-11-21T12:27:48;0.70;;;0.70;;
49237;SDS011;35069;47.906;1.892;2023-11-21T12:30:15;3.80;;;0.75;;
49237;SDS011;35069;47.906;1.892;2023-11-21T12:32:45;3.83;;;1.25;;
49237;SDS011;35069;47.906;1.892;2023-11-21T12:35:13;0.93;;;0.60;;
49237;SDS011;35069;47.906;1.892;2023-11-21T12:37:39;1.77;;;1.05;;
49237;SDS011;35069;47.906;1.892;2023-11-21T12:40:09;4.22;;;1.20;;
49237;SDS011;35069;47.906;1.892;2023-11-21T12:42:44;2.03;;;1.55;;
49237;SDS011;35069;47.906;1.892;2023-11-21T12:47:53;2.88;;;0.95;;
49237;SDS011;35069;47.906;1.892;2023-11-21T12:50:33;0.85;;;0.85;;
49237;SDS011;35069;47.906;1.892;2023-11-21T12:53:02;2.47;;;0.88;;
49237;SDS011;35069;47.906;1.892;2023-11-21T12:55:30;2.20;;;1.20;;
49237;SDS011;35069;47.906;1.892;2023-11-21T12:57:57;2.80;;;1.60;;
49237;SDS011;35069;47.906;1.892;2023-11-21T13:00:34;1.10;;;1.10;;
49237;SDS011;35069;47.906;1.892;2023-11-21T13:03:04;2.60;;;2.15;;
49237;SDS011;35069;47.906;1.892;2023-11-21T13:05:32;1.23;;;1.05;;
49237;SDS011;35069;47.906;1.892;2023-11-21T13:08:01;2.47;;;0.80;;
49237;SDS011;35069;47.906;1.892;2023-11-21T13:10:29;1.50;;;1.10;;
49237;SDS011;35069;47.906;1.892;2023-11-21T13:12:57;1.33;;;1.23;;
49237;SDS011;35069;47.906;1.892;2023-11-21T13:15:24;0.80;;;0.73;;
49237;SDS011;35069;47.906;1.892;2023-11-21T13:17:52;1.27;;;1.17;;
49237;SDS011;35069;47.906;1.892;2023-11-21T13:20:18;1.15;;;0.75;;
49237;SDS011;35069;47.906;1.892;2023-11-21T13:22:55;1.40;;;1.27;;
49237;SDS011;35069;47.906;1.892;2023-11-21T13:25:25;1.00;;;0.82;;
49237;SDS011;35069;47.906;1.892;2023-11-21T13:27:55;4.45;;;1.45;;
49237;SDS011;35069;47.906;1.892;2023-11-21T13:30:21;1.83;;;0.88;;
49237;SDS011;35069;47.906;1.892;2023-11-21T13:32:55;4.25;;;1.15;;
49237;SDS011;35069;47.906;1.892;2023-11-21T13:35:27;0.70;;;0.70;;
49237;SDS011;35069;47.906;1.892;2023-11-21T13:38:06;0.68;;;0.57;;
49237;SDS011;35069;47.906;1.892;2023-11-21T13:40:34;0.77;;;0.77;;
49237;SDS011;35069;47.906;1.892;2023-11-21T13:43:07;1.85;;;0.88;;
49237;SDS011;35069;47.906;1.892;2023-11-21T13:45:35;1.00;;;1.00;;
49237;SDS011;35069;47.906;1.892;2023-11-21T13:48:01;1.02;;;0.60;;
49237;SDS011;35069;47.906;1.892;2023-11-21T13:50:27;0.60;;;0.52;;
49237;SDS011;35069;47.906;1.892;2023-11-21T13:53:01;4.40;;;1.00;;
49237;SDS011;35069;47.906;1.892;2023-11-21T13:55:41;2.63;;;0.80;;
49237;SDS011;35069;47.906;1.892;2023-11-21T13:58:07;0.52;;;0.52;;
49237;SDS011;35069;47.906;1.892;2023-11-21T14:00:36;3.55;;;0.82;;
49237;SDS011;35069;47.906;1.892;2023-11-21T14:03:12;1.77;;;0.77;;
49237;SDS011;35069;47.906;1.892;2023-11-21T14:05:46;10.05;;;0.88;;
49237;SDS011;35069;47.906;1.892;2023-11-21T14:08:17;3.15;;;0.80;;
49237;SDS011;35069;47.906;1.892;2023-11-21T14:10:49;0.40;;;0.40;;
49237;SDS011;35069;47.906;1.892;2023-11-21T14:13:18;0.68;;;0.63;;
49237;SDS011;35069;47.906;1.892;2023-11-21T14:15:44;0.50;;;0.50;;
49237;SDS011;35069;47.906;1.892;2023-11-21T14:18:11;0.57;;;0.57;;
49237;SDS011;35069;47.906;1.892;2023-11-21T14:20:42;0.30;;;0.30;;
49237;SDS011;35069;47.906;1.892;2023-11-21T14:23:09;0.40;;;0.30;;
49237;SDS011;35069;47.906;1.892;2023-11-21T14:25:35;0.75;;;0.75;;
49237;SDS011;35069;47.906;1.892;2023-11-21T14:28:05;3.22;;;0.40;;
49237;SDS011;35069;47.906;1.892;2023-11-21T14:30:31;2.20;;;0.90;;
49237;SDS011;35069;47.906;1.892;2023-11-21T14:33:01;0.50;;;0.50;;
49237;SDS011;35069;47.906;1.892;2023-11-21T14:35:27;0.95;;;0.60;;
49237;SDS011;35069;47.906;1.892;2023-11-21T14:37:55;1.50;;;0.60;;
49237;SDS011;35069;47.906;1.892;2023-11-21T14:40:20;1.55;;;0.52;;
49237;SDS011;35069;47.906;1.892;2023-11-21T14:42:49;1.00;;;0.50;;
49237;SDS011;35069;47.906;1.892;2023-11-21T14:45:18;0.50;;;0.50;;
49237;SDS011;35069;47.906;1.892;2023-11-21T14:47:45;1.55;;;0.57;;
49237;SDS011;35069;47.906;1.892;2023-11-21T14:50:20;1.98;;;0.60;;
49237;SDS011;35069;47.906;1.892;2023-11-21T14:53:11;0.73;;;0.60;;
49237;SDS011;35069;47.906;1.892;2023-11-21T14:55:38;4.45;;;0.75;;
49237;SDS011;35069;47.906;1.892;2023-11-21T14:58:16;1.15;;;0.80;;
49237;SDS011;35069;47.906;1.892;2023-11-21T15:00:57;2.83;;;0.82;;
49237;SDS011;35069;47.906;1.892;2023-11-21T15:03:27;1.98;;;1.52;;
49237;SDS011;35069;47.906;1.892;2023-11-21T15:05:56;1.00;;;0.50;;
49237;SDS011;35069;47.906;1.892;2023-11-21T15:08:53;1.60;;;0.68;;